sensor_id;sensor_type;location;lat;lon;timestamp;temperature;humidity
21801;DHT22;11062;51.164;16.924;2023-05-31T00:51:11;31.20;35.40
21801;DHT22;11062;51.164;16.924;2023-05-31T00:53:38;30.70;35.00
21801;DHT22;11062;51.164;16.924;2023-05-31T00:56:10;31.10;36.00
21801;DHT22;11062;51.164;16.924;2023-05-31T00:58:36;31.00;36.80
21801;DHT22;11062;51.164;16.924;2023-05-31T01:01:02;31.10;35.90
21801;DHT22;11062;51.164;16.924;2023-05-31T01:03:28;30.60;36.60
21801;DHT22;11062;51.164;16.924;2023-05-31T01:05:57;31.00;36.90
21801;DHT22;11062;51.164;16.924;2023-05-31T01:08:23;29.90;36.30
21801;DHT22;11062;51.164;16.924;2023-05-31T01:10:52;30.10;36.30
21801;DHT22;11062;51.164;16.924;2023-05-31T01:13:28;29.70;35.30
21801;DHT22;11062;51.164;16.924;2023-05-31T01:16:25;30.90;35.60
21801;DHT22;11062;51.164;16.924;2023-05-31T01:18:58;30.90;35.60
21801;DHT22;11062;51.164;16.924;2023-05-31T01:21:44;30.10;35.40
21801;DHT22;11062;51.164;16.924;2023-05-31T01:24:34;29.90;34.60
21801;DHT22;11062;51.164;16.924;2023-05-31T01:27:05;31.00;35.50
21801;DHT22;11062;51.164;16.924;2023-05-31T01:29:34;30.90;36.00
21801;DHT22;11062;51.164;16.924;2023-05-31T01:32:03;30.80;36.10
21801;DHT22;11062;51.164;16.924;2023-05-31T01:34:29;30.80;36.00
21801;DHT22;11062;51.164;16.924;2023-05-31T01:36:55;30.10;36.40
21801;DHT22;11062;51.164;16.924;2023-05-31T01:39:23;29.90;36.20
21801;DHT22;11062;51.164;16.924;2023-05-31T01:41:54;30.10;34.90
21801;DHT22;11062;51.164;16.924;2023-05-31T01:44:21;30.70;35.90
21801;DHT22;11062;51.164;16.924;2023-05-31T01:46:47;30.70;36.70
21801;DHT22;11062;51.164;16.924;2023-05-31T01:49:14;29.60;35.00
21801;DHT22;11062;51.164;16.924;2023-05-31T01:51:47;29.50;35.90
21801;DHT22;11062;51.164;16.924;2023-05-31T01:54:17;30.70;36.40
21801;DHT22;11062;51.164;16.924;2023-05-31T01:56:44;30.70;36.90
21801;DHT22;11062;51.164;16.924;2023-05-31T01:59:11;29.80;35.60
21801;DHT22;11062;51.164;16.924;2023-05-31T02:01:40;30.60;36.10
21801;DHT22;11062;51.164;16.924;2023-05-31T02:04:09;30.70;35.90
21801;DHT22;11062;51.164;16.924;2023-05-31T02:06:36;30.60;36.30
21801;DHT22;11062;51.164;16.924;2023-05-31T02:09:06;30.50;35.90
21801;DHT22;11062;51.164;16.924;2023-05-31T02:11:32;30.60;37.10
21801;DHT22;11062;51.164;16.924;2023-05-31T02:14:04;29.90;35.90
21801;DHT22;11062;51.164;16.924;2023-05-31T02:16:33;30.50;36.40
21801;DHT22;11062;51.164;16.924;2023-05-31T02:18:59;29.50;36.60
21801;DHT22;11062;51.164;16.924;2023-05-31T02:21:25;29.30;36.70
21801;DHT22;11062;51.164;16.924;2023-05-31T02:23:51;30.10;37.40
21801;DHT22;11062;51.164;16.924;2023-05-31T02:26:17;30.50;37.80
21801;DHT22;11062;51.164;16.924;2023-05-31T02:28:43;30.40;37.40
21801;DHT22;11062;51.164;16.924;2023-05-31T04:46:54;30.90;36.90
21801;DHT22;11062;51.164;16.924;2023-05-31T05:46:09;33.00;34.60
21801;DHT22;11062;51.164;16.924;2023-05-31T05:51:25;33.20;34.50
21801;DHT22;11062;51.164;16.924;2023-05-31T06:01:13;33.50;35.20
21801;DHT22;11062;51.164;16.924;2023-05-31T06:03:49;33.50;33.30
21801;DHT22;11062;51.164;16.924;2023-05-31T07:00:16;34.50;33.60
21801;DHT22;11062;51.164;16.924;2023-05-31T07:02:53;34.40;33.70
21801;DHT22;11062;51.164;16.924;2023-05-31T07:10:19;34.50;33.10
21801;DHT22;11062;51.164;16.924;2023-05-31T20:23:47;35.50;35.20
21801;DHT22;11062;51.164;16.924;2023-05-31T20:26:12;35.40;35.30
